Mathews, Virginia
Current Conditions -  °F | °C
As of 11:35 AM on Wednesday 22 Oct 2014 (Local Time) from KW75 Reporting Station
Overcast Overcast  
Wind Chill: 57°   Ceiling: 1500
Heat Index: 57°   Visibility: 10mi
Dew Point: 52°   Wind: 17mph
Humidity: 82%   Direction: 330°NNW
Pressure: 29.84"   Gusts: 28mph
Location:  37.44°N, 76.32°W
Report Text: KW75 221535Z AUTO 33015G24KT 10SM OVC015 14/11 A2984 RMK AO1 T01400109
Loading
Personal Weather Stations






























Interactive Weather Map
Tropical Storm Tracking
New forecast layout! Learn more

10-Day Weather Forecast

Advertisements
Track Severe Weather on mobile